sensor_id;sensor_type;location;lat;lon;timestamp;pressure;altitude;pressure_sealevel;temperature;humidity
74327;BME280;62745;51.060;13.786;2023-01-15T00:00:57;98888.91;;;8.45;77.95
74327;BME280;62745;51.060;13.786;2023-01-15T00:03:22;98905.81;;;8.64;77.56
74327;BME280;62745;51.060;13.786;2023-01-15T00:05:47;98897.44;;;8.54;78.53
74327;BME280;62745;51.060;13.786;2023-01-15T00:08:13;98889.94;;;8.44;78.24
74327;BME280;62745;51.060;13.786;2023-01-15T00:10:38;98902.78;;;8.54;78.13
74327;BME280;62745;51.060;13.786;2023-01-15T00:13:03;98904.22;;;8.50;78.72
74327;BME280;62745;51.060;13.786;2023-01-15T00:15:28;98894.81;;;8.47;79.07
74327;BME280;62745;51.060;13.786;2023-01-15T00:17:54;98884.00;;;8.42;78.58
74327;BME280;62745;51.060;13.786;2023-01-15T00:20:19;98882.13;;;8.49;78.74
74327;BME280;62745;51.060;13.786;2023-01-15T00:22:44;98876.84;;;8.42;78.77
74327;BME280;62745;51.060;13.786;2023-01-15T00:25:10;98874.41;;;8.41;78.47
74327;BME280;62745;51.060;13.786;2023-01-15T00:27:54;98870.22;;;8.52;78.44
74327;BME280;62745;51.060;13.786;2023-01-15T00:30:19;98866.16;;;8.49;78.52
74327;BME280;62745;51.060;13.786;2023-01-15T00:32:45;98883.09;;;8.61;77.94
74327;BME280;62745;51.060;13.786;2023-01-15T00:35:13;98885.72;;;8.68;78.03
74327;BME280;62745;51.060;13.786;2023-01-15T00:37:38;98876.53;;;8.64;78.43
74327;BME280;62745;51.060;13.786;2023-01-15T00:40:04;98859.78;;;8.57;78.26
74327;BME280;62745;51.060;13.786;2023-01-15T00:42:29;98849.75;;;8.59;78.79
74327;BME280;62745;51.060;13.786;2023-01-15T00:44:54;98855.44;;;8.62;78.73
74327;BME280;62745;51.060;13.786;2023-01-15T00:47:20;98855.38;;;8.69;79.00
74327;BME280;62745;51.060;13.786;2023-01-15T00:49:45;98845.13;;;8.72;78.27
74327;BME280;62745;51.060;13.786;2023-01-15T00:52:10;98833.03;;;8.77;78.39
74327;BME280;62745;51.060;13.786;2023-01-15T00:54:36;98835.66;;;8.83;78.45
74327;BME280;62745;51.060;13.786;2023-01-15T00:57:01;98838.47;;;8.88;77.72
74327;BME280;62745;51.060;13.786;2023-01-15T00:59:26;98832.31;;;8.94;78.22
74327;BME280;62745;51.060;13.786;2023-01-15T01:01:52;98827.19;;;8.93;77.76
74327;BME280;62745;51.060;13.786;2023-01-15T01:04:17;98820.72;;;9.07;78.33
74327;BME280;62745;51.060;13.786;2023-01-15T01:06:42;98816.81;;;9.10;77.53
74327;BME280;62745;51.060;13.786;2023-01-15T01:09:12;98814.91;;;9.17;77.33
74327;BME280;62745;51.060;13.786;2023-01-15T01:11:37;98822.66;;;9.18;77.34
74327;BME280;62745;51.060;13.786;2023-01-15T01:14:03;98811.19;;;9.18;77.38
74327;BME280;62745;51.060;13.786;2023-01-15T01:16:36;98813.59;;;9.26;77.45
74327;BME280;62745;51.060;13.786;2023-01-15T01:19:06;98793.25;;;9.31;77.08
74327;BME280;62745;51.060;13.786;2023-01-15T01:21:32;98787.84;;;9.38;77.46
74327;BME280;62745;51.060;13.786;2023-01-15T01:23:59;98792.94;;;9.40;77.31
74327;BME280;62745;51.060;13.786;2023-01-15T01:26:26;98793.97;;;9.39;77.45
74327;BME280;62745;51.060;13.786;2023-01-15T01:28:53;98769.50;;;9.30;76.87
74327;BME280;62745;51.060;13.786;2023-01-15T01:31:20;98791.63;;;9.49;76.62
74327;BME280;62745;51.060;13.786;2023-01-15T01:33:49;98787.34;;;9.48;76.15
74327;BME280;62745;51.060;13.786;2023-01-15T01:36:15;98793.72;;;9.47;76.58
74327;BME280;62745;51.060;13.786;2023-01-15T01:38:41;98780.31;;;9.53;76.33
74327;BME280;62745;51.060;13.786;2023-01-15T01:41:06;98773.66;;;9.44;76.35
74327;BME280;62745;51.060;13.786;2023-01-15T01:43:51;98771.22;;;9.43;76.82
74327;BME280;62745;51.060;13.786;2023-01-15T01:46:17;98763.78;;;9.26;77.05
74327;BME280;62745;51.060;13.786;2023-01-15T01:48:43;98763.38;;;9.23;77.53
74327;BME280;62745;51.060;13.786;2023-01-15T01:51:08;98766.44;;;9.26;77.06
74327;BME280;62745;51.060;13.786;2023-01-15T01:53:34;98769.38;;;9.18;77.64
74327;BME280;62745;51.060;13.786;2023-01-15T01:55:59;98780.47;;;9.15;77.39
74327;BME280;62745;51.060;13.786;2023-01-15T01:58:29;98759.88;;;9.04;77.88
74327;BME280;62745;51.060;13.786;2023-01-15T02:00:57;98741.31;;;8.97;77.81
74327;BME280;62745;51.060;13.786;2023-01-15T02:03:28;98759.28;;;9.02;78.32
74327;BME280;62745;51.060;13.786;2023-01-15T02:05:57;98749.44;;;9.02;79.08
74327;BME280;62745;51.060;13.786;2023-01-15T02:08:23;98740.41;;;9.03;78.38
74327;BME280;62745;51.060;13.786;2023-01-15T02:10:51;98750.97;;;9.17;78.87
74327;BME280;62745;51.060;13.786;2023-01-15T02:13:29;98739.38;;;9.04;78.97
74327;BME280;62745;51.060;13.786;2023-01-15T02:16:02;98746.53;;;9.11;78.61
74327;BME280;62745;51.060;13.786;2023-01-15T02:18:54;98737.94;;;9.09;78.91
74327;BME280;62745;51.060;13.786;2023-01-15T02:24:22;98733.41;;;9.09;79.05
74327;BME280;62745;51.060;13.786;2023-01-15T02:29:34;98727.66;;;9.12;78.82
74327;BME280;62745;51.060;13.786;2023-01-15T02:32:07;98737.63;;;9.17;78.37
74327;BME280;62745;51.060;13.786;2023-01-15T02:34:35;98732.31;;;9.17;78.58
74327;BME280;62745;51.060;13.786;2023-01-15T02:37:12;98733.34;;;9.16;78.71
74327;BME280;62745;51.060;13.786;2023-01-15T02:39:39;98728.84;;;9.16;78.86
74327;BME280;62745;51.060;13.786;2023-01-15T02:42:08;98735.56;;;9.19;79.24
74327;BME280;62745;51.060;13.786;2023-01-15T02:44:37;98732.09;;;9.18;79.29
74327;BME280;62745;51.060;13.786;2023-01-15T02:47:06;98704.72;;;9.11;78.88
74327;BME280;62745;51.060;13.786;2023-01-15T02:49:35;98717.28;;;9.22;79.23
74327;BME280;62745;51.060;13.786;2023-01-15T02:52:12;98706.25;;;9.19;79.13
74327;BME280;62745;51.060;13.786;2023-01-15T02:54:53;98699.03;;;9.26;79.27
74327;BME280;62745;51.060;13.786;2023-01-15T02:57:21;98672.00;;;9.22;79.97
74327;BME280;62745;51.060;13.786;2023-01-15T02:59:50;98683.41;;;9.29;79.48
74327;BME280;62745;51.060;13.786;2023-01-15T03:02:25;98688.41;;;9.38;79.98
74327;BME280;62745;51.060;13.786;2023-01-15T03:05:04;98682.88;;;9.39;80.09
74327;BME280;62745;51.060;13.786;2023-01-15T03:07:46;98669.25;;;9.29;79.38
74327;BME280;62745;51.060;13.786;2023-01-15T03:10:12;98690.81;;;9.46;79.61
74327;BME280;62745;51.060;13.786;2023-01-15T03:13:12;98687.91;;;9.47;79.29
74327;BME280;62745;51.060;13.786;2023-01-15T03:15:52;98690.00;;;9.45;79.54
74327;BME280;62745;51.060;13.786;2023-01-15T03:18:45;98679.47;;;9.50;79.39
74327;BME280;62745;51.060;13.786;2023-01-15T03:21:17;98673.38;;;9.61;78.56
74327;BME280;62745;51.060;13.786;2023-01-15T03:23:46;98674.88;;;9.57;78.70
74327;BME280;62745;51.060;13.786;2023-01-15T03:26:13;98672.81;;;9.59;78.61
74327;BME280;62745;51.060;13.786;2023-01-15T03:28:39;98663.31;;;9.63;78.84
74327;BME280;62745;51.060;13.786;2023-01-15T03:31:05;98670.72;;;9.61;78.92
74327;BME280;62745;51.060;13.786;2023-01-15T03:33:31;98665.97;;;9.63;78.36
74327;BME280;62745;51.060;13.786;2023-01-15T03:35:58;98651.31;;;9.54;79.03
74327;BME280;62745;51.060;13.786;2023-01-15T03:38:28;98662.84;;;9.67;78.70
74327;BME280;62745;51.060;13.786;2023-01-15T03:41:02;98656.13;;;9.64;78.77
74327;BME280;62745;51.060;13.786;2023-01-15T03:43:40;98642.34;;;9.67;78.62
74327;BME280;62745;51.060;13.786;2023-01-15T03:46:19;98633.75;;;9.65;79.72
74327;BME280;62745;51.060;13.786;2023-01-15T03:49:08;98639.31;;;9.63;80.21
74327;BME280;62745;51.060;13.786;2023-01-15T03:51:41;98624.31;;;9.51;81.37
74327;BME280;62745;51.060;13.786;2023-01-15T03:54:15;98617.00;;;9.46;81.09
74327;BME280;62745;51.060;13.786;2023-01-15T03:56:57;98632.00;;;9.59;81.15
74327;BME280;62745;51.060;13.786;2023-01-15T03:59:32;98629.28;;;9.47;82.21
74327;BME280;62745;51.060;13.786;2023-01-15T04:02:01;98636.47;;;9.47;83.72
74327;BME280;62745;51.060;13.786;2023-01-15T04:04:27;98640.16;;;9.46;82.96
74327;BME280;62745;51.060;13.786;2023-01-15T04:06:54;98627.56;;;9.34;84.13
74327;BME280;62745;51.060;13.786;2023-01-15T04:09:20;98635.50;;;9.41;84.34
74327;BME280;62745;51.060;13.786;2023-01-15T04:11:45;98637.19;;;9.35;83.65
74327;BME280;62745;51.060;13.786;2023-01-15T04:14:12;98634.69;;;9.41;83.52
74327;BME280;62745;51.060;13.786;2023-01-15T04:16:39;98633.66;;;9.42;83.99
74327;BME280;62745;51.060;13.786;2023-01-15T04:19:04;98644.50;;;9.40;83.86
74327;BME280;62745;51.060;13.786;2023-01-15T04:21:29;98631.06;;;9.35;83.62
74327;BME280;62745;51.060;13.786;2023-01-15T04:23:55;98628.75;;;9.39;82.75
74327;BME280;62745;51.060;13.786;2023-01-15T04:26:20;98641.19;;;9.45;83.33
74327;BME280;62745;51.060;13.786;2023-01-15T04:28:46;98634.91;;;9.39;83.54
74327;BME280;62745;51.060;13.786;2023-01-15T04:31:11;98621.72;;;9.44;84.08
74327;BME280;62745;51.060;13.786;2023-01-15T04:33:37;98611.22;;;9.31;84.38
74327;BME280;62745;51.060;13.786;2023-01-15T04:36:04;98602.06;;;9.27;84.99
74327;BME280;62745;51.060;13.786;2023-01-15T04:38:29;98620.03;;;9.31;84.23
74327;BME280;62745;51.060;13.786;2023-01-15T04:40:59;98607.84;;;9.24;84.74
74327;BME280;62745;51.060;13.786;2023-01-15T04:43:43;98602.34;;;9.19;85.10
74327;BME280;62745;51.060;13.786;2023-01-15T04:46:27;98606.94;;;9.30;85.06
74327;BME280;62745;51.060;13.786;2023-01-15T04:48:52;98584.75;;;9.18;85.02
74327;BME280;62745;51.060;13.786;2023-01-15T04:51:17;98595.13;;;9.26;84.35
74327;BME280;62745;51.060;13.786;2023-01-15T04:53:43;98571.19;;;9.19;84.62
74327;BME280;62745;51.060;13.786;2023-01-15T04:56:08;98593.63;;;9.30;85.01
74327;BME280;62745;51.060;13.786;2023-01-15T04:58:34;98579.72;;;9.28;85.09
74327;BME280;62745;51.060;13.786;2023-01-15T05:00:59;98559.66;;;9.25;84.94
74327;BME280;62745;51.060;13.786;2023-01-15T05:03:28;98573.47;;;9.34;84.93
74327;BME280;62745;51.060;13.786;2023-01-15T05:05:54;98570.00;;;9.33;84.86
74327;BME280;62745;51.060;13.786;2023-01-15T05:08:19;98568.59;;;9.31;84.69
74327;BME280;62745;51.060;13.786;2023-01-15T05:10:44;98565.25;;;9.35;84.49
74327;BME280;62745;51.060;13.786;2023-01-15T05:13:10;98560.38;;;9.32;84.71
74327;BME280;62745;51.060;13.786;2023-01-15T05:15:35;98561.53;;;9.37;84.29
74327;BME280;62745;51.060;13.786;2023-01-15T05:18:03;98560.25;;;9.27;84.72
74327;BME280;62745;51.060;13.786;2023-01-15T05:20:28;98568.94;;;9.34;84.95
74327;BME280;62745;51.060;13.786;2023-01-15T05:22:53;98577.75;;;9.35;84.38
74327;BME280;62745;51.060;13.786;2023-01-15T05:25:18;98570.34;;;9.37;84.50
74327;BME280;62745;51.060;13.786;2023-01-15T05:27:43;98549.72;;;9.32;84.25
74327;BME280;62745;51.060;13.786;2023-01-15T05:30:09;98568.50;;;9.38;84.71
74327;BME280;62745;51.060;13.786;2023-01-15T05:32:35;98560.06;;;9.41;84.31
74327;BME280;62745;51.060;13.786;2023-01-15T05:35:00;98544.16;;;9.34;83.96
74327;BME280;62745;51.060;13.786;2023-01-15T05:37:25;98559.47;;;9.39;84.23
74327;BME280;62745;51.060;13.786;2023-01-15T05:39:50;98563.31;;;9.43;83.67
74327;BME280;62745;51.060;13.786;2023-01-15T05:42:16;98554.75;;;9.41;84.00
74327;BME280;62745;51.060;13.786;2023-01-15T05:44:41;98556.22;;;9.37;83.59
74327;BME280;62745;51.060;13.786;2023-01-15T05:47:06;98560.50;;;9.38;83.13
74327;BME280;62745;51.060;13.786;2023-01-15T05:49:32;98558.56;;;9.45;83.00
74327;BME280;62745;51.060;13.786;2023-01-15T05:51:59;98540.81;;;9.39;83.42
74327;BME280;62745;51.060;13.786;2023-01-15T05:54:28;98555.44;;;9.48;83.16
74327;BME280;62745;51.060;13.786;2023-01-15T05:56:54;98549.41;;;9.41;83.27
74327;BME280;62745;51.060;13.786;2023-01-15T05:59:22;98563.09;;;9.44;83.77
74327;BME280;62745;51.060;13.786;2023-01-15T06:01:47;98559.75;;;9.49;82.94
74327;BME280;62745;51.060;13.786;2023-01-15T06:04:13;98553.94;;;9.52;82.65
74327;BME280;62745;51.060;13.786;2023-01-15T06:06:40;98549.34;;;9.59;81.94
74327;BME280;62745;51.060;13.786;2023-01-15T06:09:06;98558.59;;;9.56;82.33
74327;BME280;62745;51.060;13.786;2023-01-15T06:11:31;98549.78;;;9.56;82.53
74327;BME280;62745;51.060;13.786;2023-01-15T06:13:57;98552.03;;;9.59;82.41
74327;BME280;62745;51.060;13.786;2023-01-15T06:16:23;98553.88;;;9.58;82.29
74327;BME280;62745;51.060;13.786;2023-01-15T06:18:49;98552.84;;;9.59;82.77
74327;BME280;62745;51.060;13.786;2023-01-15T06:21:15;98534.72;;;9.50;82.59
74327;BME280;62745;51.060;13.786;2023-01-15T06:23:41;98553.19;;;9.63;82.50
74327;BME280;62745;51.060;13.786;2023-01-15T06:26:11;98543.09;;;9.65;82.25
74327;BME280;62745;51.060;13.786;2023-01-15T06:28:37;98541.84;;;9.68;82.03
74327;BME280;62745;51.060;13.786;2023-01-15T06:31:07;98533.47;;;9.64;82.21
74327;BME280;62745;51.060;13.786;2023-01-15T06:33:33;98541.03;;;9.67;81.86
74327;BME280;62745;51.060;13.786;2023-01-15T06:36:02;98525.38;;;9.59;82.08
74327;BME280;62745;51.060;13.786;2023-01-15T06:38:28;98553.06;;;9.70;81.84
74327;BME280;62745;51.060;13.786;2023-01-15T06:40:53;98622.63;;;9.68;82.11
74327;BME280;62745;51.060;13.786;2023-01-15T06:43:18;98642.69;;;9.41;87.87
74327;BME280;62745;51.060;13.786;2023-01-15T06:46:02;98643.94;;;9.01;90.91
74327;BME280;62745;51.060;13.786;2023-01-15T06:48:51;98654.47;;;8.71;93.55
74327;BME280;62745;51.060;13.786;2023-01-15T06:51:16;98670.59;;;8.58;95.34
74327;BME280;62745;51.060;13.786;2023-01-15T06:53:44;98676.16;;;8.50;97.44
74327;BME280;62745;51.060;13.786;2023-01-15T06:56:11;98704.03;;;7.78;92.46
74327;BME280;62745;51.060;13.786;2023-01-15T06:58:38;98703.41;;;7.18;94.32
74327;BME280;62745;51.060;13.786;2023-01-15T07:01:11;98713.28;;;6.78;94.36
74327;BME280;62745;51.060;13.786;2023-01-15T07:03:36;98719.00;;;6.42;96.45
74327;BME280;62745;51.060;13.786;2023-01-15T07:06:07;98745.28;;;6.10;96.65
74327;BME280;62745;51.060;13.786;2023-01-15T07:08:32;98747.59;;;5.79;96.84
74327;BME280;62745;51.060;13.786;2023-01-15T07:11:07;98765.94;;;5.80;95.83
74327;BME280;62745;51.060;13.786;2023-01-15T07:13:33;98750.22;;;5.72;96.90
74327;BME280;62745;51.060;13.786;2023-01-15T07:16:00;98749.44;;;5.85;97.18
74327;BME280;62745;51.060;13.786;2023-01-15T07:18:27;98769.25;;;5.89;96.88
74327;BME280;62745;51.060;13.786;2023-01-15T07:20:57;98770.50;;;5.93;96.31
74327;BME280;62745;51.060;13.786;2023-01-15T07:23:24;98774.41;;;6.03;96.59
74327;BME280;62745;51.060;13.786;2023-01-15T07:25:51;98764.59;;;6.04;96.96
74327;BME280;62745;51.060;13.786;2023-01-15T07:28:17;98770.50;;;5.93;96.62
74327;BME280;62745;51.060;13.786;2023-01-15T07:30:42;98777.09;;;6.17;96.46
74327;BME280;62745;51.060;13.786;2023-01-15T07:33:07;98789.53;;;6.16;96.04
74327;BME280;62745;51.060;13.786;2023-01-15T07:35:34;98785.59;;;5.99;96.70
74327;BME280;62745;51.060;13.786;2023-01-15T07:38:00;98782.03;;;5.85;96.00
74327;BME280;62745;51.060;13.786;2023-01-15T07:40:26;98809.84;;;5.96;96.48
74327;BME280;62745;51.060;13.786;2023-01-15T07:42:51;98810.66;;;5.96;96.38
74327;BME280;62745;51.060;13.786;2023-01-15T07:45:41;98819.03;;;6.00;95.59
74327;BME280;62745;51.060;13.786;2023-01-15T07:48:26;98832.97;;;6.09;95.62
74327;BME280;62745;51.060;13.786;2023-01-15T07:51:10;98835.00;;;6.20;95.53
74327;BME280;62745;51.060;13.786;2023-01-15T07:53:36;98819.25;;;5.98;95.93
74327;BME280;62745;51.060;13.786;2023-01-15T07:56:01;98844.31;;;6.02;95.39
74327;BME280;62745;51.060;13.786;2023-01-15T07:58:26;98859.50;;;5.87;96.15
74327;BME280;62745;51.060;13.786;2023-01-15T08:00:52;98865.19;;;6.12;95.87
74327;BME280;62745;51.060;13.786;2023-01-15T08:03:17;98862.72;;;6.11;95.66
74327;BME280;62745;51.060;13.786;2023-01-15T08:05:42;98868.44;;;6.08;96.22
74327;BME280;62745;51.060;13.786;2023-01-15T08:08:14;98866.00;;;6.06;95.76
74327;BME280;62745;51.060;13.786;2023-01-15T08:10:39;98877.81;;;6.10;95.14
74327;BME280;62745;51.060;13.786;2023-01-15T08:13:24;98879.25;;;6.13;95.38
74327;BME280;62745;51.060;13.786;2023-01-15T08:16:08;98889.97;;;5.91;95.91
74327;BME280;62745;51.060;13.786;2023-01-15T08:18:35;98890.38;;;5.67;96.77
74327;BME280;62745;51.060;13.786;2023-01-15T08:21:00;98887.00;;;5.52;97.97
74327;BME280;62745;51.060;13.786;2023-01-15T08:23:25;98886.38;;;5.78;96.94
74327;BME280;62745;51.060;13.786;2023-01-15T08:25:51;98895.16;;;5.50;97.27
74327;BME280;62745;51.060;13.786;2023-01-15T08:28:16;98906.47;;;5.37;97.42
74327;BME280;62745;51.060;13.786;2023-01-15T08:30:41;98901.34;;;5.08;98.43
74327;BME280;62745;51.060;13.786;2023-01-15T08:33:06;98913.06;;;4.99;98.61
74327;BME280;62745;51.060;13.786;2023-01-15T08:35:32;98920.16;;;4.98;99.52
74327;BME280;62745;51.060;13.786;2023-01-15T08:37:58;98900.34;;;4.88;99.45
74327;BME280;62745;51.060;13.786;2023-01-15T08:40:27;98908.97;;;4.96;99.54
74327;BME280;62745;51.060;13.786;2023-01-15T08:42:52;98883.75;;;4.79;99.57
74327;BME280;62745;51.060;13.786;2023-01-15T08:45:18;98894.16;;;5.02;99.29
74327;BME280;62745;51.060;13.786;2023-01-15T08:47:43;98885.66;;;5.06;99.29
74327;BME280;62745;51.060;13.786;2023-01-15T08:50:09;98869.97;;;5.33;100.00
74327;BME280;62745;51.060;13.786;2023-01-15T08:52:34;98872.34;;;5.49;98.02
74327;BME280;62745;51.060;13.786;2023-01-15T08:54:59;98876.16;;;5.40;98.08
74327;BME280;62745;51.060;13.786;2023-01-15T08:57:25;98878.84;;;5.81;96.92
74327;BME280;62745;51.060;13.786;2023-01-15T08:59:50;98893.41;;;5.36;96.85
74327;BME280;62745;51.060;13.786;2023-01-15T09:02:15;98917.94;;;5.44;97.77
74327;BME280;62745;51.060;13.786;2023-01-15T09:04:41;98923.94;;;5.32;97.72
74327;BME280;62745;51.060;13.786;2023-01-15T09:07:07;98923.56;;;5.13;97.96
74327;BME280;62745;51.060;13.786;2023-01-15T09:09:32;98923.56;;;5.13;98.15
74327;BME280;62745;51.060;13.786;2023-01-15T09:11:58;98907.78;;;5.48;97.19
74327;BME280;62745;51.060;13.786;2023-01-15T09:14:23;98894.53;;;5.76;97.06
74327;BME280;62745;51.060;13.786;2023-01-15T09:16:48;98918.81;;;5.80;95.76
74327;BME280;62745;51.060;13.786;2023-01-15T09:19:13;98917.66;;;5.89;96.32
74327;BME280;62745;51.060;13.786;2023-01-15T09:21:39;98906.91;;;5.69;96.65
74327;BME280;62745;51.060;13.786;2023-01-15T09:24:04;98925.53;;;6.10;95.50
74327;BME280;62745;51.060;13.786;2023-01-15T09:26:31;98932.38;;;5.70;96.27
74327;BME280;62745;51.060;13.786;2023-01-15T09:28:57;98941.53;;;5.39;96.55
74327;BME280;62745;51.060;13.786;2023-01-15T09:31:23;98925.69;;;5.46;97.00
74327;BME280;62745;51.060;13.786;2023-01-15T09:33:49;98926.09;;;5.22;98.09
74327;BME280;62745;51.060;13.786;2023-01-15T09:36:20;98924.63;;;5.40;98.60
74327;BME280;62745;51.060;13.786;2023-01-15T09:38:48;98928.50;;;5.38;97.97
74327;BME280;62745;51.060;13.786;2023-01-15T09:41:14;98903.38;;;5.06;97.74
74327;BME280;62745;51.060;13.786;2023-01-15T09:44:07;98926.84;;;5.16;98.82
74327;BME280;62745;51.060;13.786;2023-01-15T09:46:56;98936.28;;;5.46;97.67
74327;BME280;62745;51.060;13.786;2023-01-15T09:49:34;98938.44;;;5.36;97.60
74327;BME280;62745;51.060;13.786;2023-01-15T09:52:24;98938.44;;;5.36;97.23
74327;BME280;62745;51.060;13.786;2023-01-15T09:55:09;98937.31;;;5.24;98.04
74327;BME280;62745;51.060;13.786;2023-01-15T09:57:37;98934.91;;;5.29;96.65
74327;BME280;62745;51.060;13.786;2023-01-15T10:00:05;98928.41;;;5.31;98.01
74327;BME280;62745;51.060;13.786;2023-01-15T10:02:36;98926.78;;;5.30;95.86
74327;BME280;62745;51.060;13.786;2023-01-15T10:05:12;98916.09;;;5.45;96.60
74327;BME280;62745;51.060;13.786;2023-01-15T10:10:49;98895.22;;;5.57;95.87
74327;BME280;62745;51.060;13.786;2023-01-15T10:16:04;98900.44;;;5.50;93.41
74327;BME280;62745;51.060;13.786;2023-01-15T10:18:30;98923.00;;;5.67;94.80
74327;BME280;62745;51.060;13.786;2023-01-15T10:23:33;98938.06;;;5.67;94.40
74327;BME280;62745;51.060;13.786;2023-01-15T10:26:34;98929.06;;;5.61;94.91
74327;BME280;62745;51.060;13.786;2023-01-15T10:29:05;98927.44;;;5.60;94.72
74327;BME280;62745;51.060;13.786;2023-01-15T10:31:49;98946.50;;;5.77;95.21
74327;BME280;62745;51.060;13.786;2023-01-15T10:34:27;98947.06;;;5.94;93.81
74327;BME280;62745;51.060;13.786;2023-01-15T10:37:11;98948.72;;;6.01;93.14
74327;BME280;62745;51.060;13.786;2023-01-15T10:42:41;98938.75;;;6.03;92.55
74327;BME280;62745;51.060;13.786;2023-01-15T10:45:26;98951.56;;;6.00;91.44
74327;BME280;62745;51.060;13.786;2023-01-15T10:48:01;98957.06;;;5.98;90.89
74327;BME280;62745;51.060;13.786;2023-01-15T10:50:28;98955.47;;;6.04;89.31
74327;BME280;62745;51.060;13.786;2023-01-15T10:53:03;98971.84;;;6.14;89.19
74327;BME280;62745;51.060;13.786;2023-01-15T10:55:40;98973.47;;;6.09;85.77
74327;BME280;62745;51.060;13.786;2023-01-15T10:58:15;98981.22;;;6.10;84.52
74327;BME280;62745;51.060;13.786;2023-01-15T11:00:49;98980.94;;;5.98;83.25
74327;BME280;62745;51.060;13.786;2023-01-15T11:03:19;98992.53;;;5.97;83.25
74327;BME280;62745;51.060;13.786;2023-01-15T11:05:46;98978.88;;;5.94;83.60
74327;BME280;62745;51.060;13.786;2023-01-15T11:08:21;98992.53;;;5.97;81.81
74327;BME280;62745;51.060;13.786;2023-01-15T11:10:50;98978.88;;;5.94;80.14
74327;BME280;62745;51.060;13.786;2023-01-15T11:13:21;98965.19;;;5.90;80.44
74327;BME280;62745;51.060;13.786;2023-01-15T11:16:13;98957.53;;;5.81;80.44
74327;BME280;62745;51.060;13.786;2023-01-15T11:19:01;98975.59;;;5.92;79.64
74327;BME280;62745;51.060;13.786;2023-01-15T11:21:45;98975.63;;;5.98;80.94
74327;BME280;62745;51.060;13.786;2023-01-15T11:24:14;98985.41;;;5.98;78.87
74327;BME280;62745;51.060;13.786;2023-01-15T11:26:45;98977.47;;;5.98;79.58
74327;BME280;62745;51.060;13.786;2023-01-15T11:29:25;98956.72;;;5.80;77.31
74327;BME280;62745;51.060;13.786;2023-01-15T11:31:52;98941.84;;;5.79;78.72
74327;BME280;62745;51.060;13.786;2023-01-15T11:34:19;98968.47;;;5.92;78.45
74327;BME280;62745;51.060;13.786;2023-01-15T11:36:45;98956.53;;;5.82;78.34
74327;BME280;62745;51.060;13.786;2023-01-15T11:39:27;98976.59;;;5.91;79.88
74327;BME280;62745;51.060;13.786;2023-01-15T11:42:03;98957.88;;;5.99;80.41
74327;BME280;62745;51.060;13.786;2023-01-15T11:44:55;98962.19;;;6.00;80.12
74327;BME280;62745;51.060;13.786;2023-01-15T11:47:53;98986.84;;;6.00;79.38
74327;BME280;62745;51.060;13.786;2023-01-15T11:50:53;98982.63;;;5.85;80.43
74327;BME280;62745;51.060;13.786;2023-01-15T11:53:25;98976.59;;;5.91;80.77
74327;BME280;62745;51.060;13.786;2023-01-15T11:55:54;98984.88;;;6.09;81.46
74327;BME280;62745;51.060;13.786;2023-01-15T11:58:25;98981.25;;;6.17;81.45
74327;BME280;62745;51.060;13.786;2023-01-15T12:00:51;98970.72;;;6.30;80.64
74327;BME280;62745;51.060;13.786;2023-01-15T12:03:21;98972.13;;;6.26;78.86
74327;BME280;62745;51.060;13.786;2023-01-15T12:06:11;98966.91;;;6.39;79.26
74327;BME280;62745;51.060;13.786;2023-01-15T12:08:50;98971.03;;;6.55;79.25
74327;BME280;62745;51.060;13.786;2023-01-15T12:11:51;98980.59;;;6.49;78.38
74327;BME280;62745;51.060;13.786;2023-01-15T12:14:33;98981.28;;;6.58;78.87
74327;BME280;62745;51.060;13.786;2023-01-15T12:17:28;98972.72;;;6.62;78.62
74327;BME280;62745;51.060;13.786;2023-01-15T12:20:23;98974.63;;;6.82;78.28
74327;BME280;62745;51.060;13.786;2023-01-15T12:25:41;98973.81;;;6.88;79.27
74327;BME280;62745;51.060;13.786;2023-01-15T12:28:24;98971.75;;;6.83;76.05
74327;BME280;62745;51.060;13.786;2023-01-15T12:30:59;98968.91;;;6.78;78.52
74327;BME280;62745;51.060;13.786;2023-01-15T12:33:45;98975.44;;;6.76;76.87
74327;BME280;62745;51.060;13.786;2023-01-15T12:36:23;98977.94;;;6.97;77.03
74327;BME280;62745;51.060;13.786;2023-01-15T12:38:55;98968.16;;;7.17;76.34
74327;BME280;62745;51.060;13.786;2023-01-15T12:41:35;98966.34;;;7.11;74.37
74327;BME280;62745;51.060;13.786;2023-01-15T12:44:27;98962.28;;;7.29;76.37
74327;BME280;62745;51.060;13.786;2023-01-15T12:47:16;98966.56;;;7.30;74.76
74327;BME280;62745;51.060;13.786;2023-01-15T12:49:52;98947.78;;;7.24;74.25
74327;BME280;62745;51.060;13.786;2023-01-15T12:52:25;98958.81;;;7.28;73.31
74327;BME280;62745;51.060;13.786;2023-01-15T12:55:02;98917.72;;;7.37;73.98
74327;BME280;62745;51.060;13.786;2023-01-15T12:57:36;98946.13;;;7.50;73.40
74327;BME280;62745;51.060;13.786;2023-01-15T13:03:18;98977.63;;;7.40;72.69
74327;BME280;62745;51.060;13.786;2023-01-15T13:05:51;98959.63;;;7.42;73.32
74327;BME280;62745;51.060;13.786;2023-01-15T13:08:26;98972.47;;;7.18;73.27
74327;BME280;62745;51.060;13.786;2023-01-15T13:10:54;98970.38;;;7.01;72.71
74327;BME280;62745;51.060;13.786;2023-01-15T13:13:25;98989.38;;;7.04;72.69
74327;BME280;62745;51.060;13.786;2023-01-15T13:21:23;98977.47;;;6.80;72.06
74327;BME280;62745;51.060;13.786;2023-01-15T13:29:51;98962.56;;;6.86;72.44
74327;BME280;62745;51.060;13.786;2023-01-15T13:32:26;98972.00;;;6.95;71.79
74327;BME280;62745;51.060;13.786;2023-01-15T13:35:08;98959.28;;;6.77;71.73
74327;BME280;62745;51.060;13.786;2023-01-15T13:37:40;98994.44;;;6.86;71.65
74327;BME280;62745;51.060;13.786;2023-01-15T13:43:01;99007.13;;;6.90;72.33
74327;BME280;62745;51.060;13.786;2023-01-15T13:45:37;98997.81;;;6.67;72.35
74327;BME280;62745;51.060;13.786;2023-01-15T13:48:07;99013.34;;;6.70;70.60
74327;BME280;62745;51.060;13.786;2023-01-15T13:50:41;98994.16;;;6.68;70.91
74327;BME280;62745;51.060;13.786;2023-01-15T13:56:07;98978.06;;;6.76;72.00
74327;BME280;62745;51.060;13.786;2023-01-15T13:58:37;98989.75;;;6.88;70.74